Time;durP1;ratioP1;P1;durP2;ratioP2;P2;SDS_P1;SDS_P2;PMS_P1;PMS_P2;Temp;Humidity;BMP_temperature;BMP_pressure;BME280_temperature;BME280_humidity;BME280_pressure;Samples;Min_cycle;Max_cycle;Signal;HPM_P1;HPM_P2
2022/10/01 00:01:14;;;;;;;24.23;11.02;;;7.00;99.90;;;;;;5032797;28;20034;-35
2022/10/01 00:03:41;;;;;;;8.77;6.22;;;7.10;99.90;;;;;;5031678;28;20029;-33
2022/10/01 00:06:15;;;;;;;48.78;10.50;;;7.10;99.90;;;;;;5028917;28;20053;-35
2022/10/01 00:08:43;;;;;;;38.83;8.32;;;7.10;99.90;;;;;;5029636;28;20044;-34
2022/10/01 00:11:23;;;;;;;8.43;5.63;;;7.00;99.90;;;;;;5029791;28;20052;-32
2022/10/01 00:13:50;;;;;;;47.22;8.85;;;7.00;99.90;;;;;;5030897;28;20032;-32
2022/10/01 00:16:21;;;;;;;24.15;7.32;;;6.90;99.90;;;;;;5025966;28;20037;-32
2022/10/01 00:18:48;;;;;;;36.22;6.95;;;6.70;99.90;;;;;;5030247;28;20048;-32
2022/10/01 00:21:17;;;;;;;9.98;5.78;;;6.60;99.90;;;;;;5031365;28;20041;-34
2022/10/01 00:23:42;;;;;;;12.52;5.43;;;6.60;99.90;;;;;;5028696;28;20026;-32
2022/10/01 00:26:15;;;;;;;11.07;7.18;;;6.60;99.90;;;;;;5028729;28;20112;-35
2022/10/01 00:28:42;;;;;;;7.90;5.43;;;6.60;99.90;;;;;;5026350;28;20038;-34
2022/10/01 00:31:09;;;;;;;31.75;6.75;;;6.60;99.90;;;;;;5027674;28;20494;-32
2022/10/01 00:33:35;;;;;;;20.27;6.35;;;6.60;99.90;;;;;;5029325;28;20041;-33
2022/10/01 00:36:02;;;;;;;10.63;6.30;;;6.50;99.90;;;;;;5026417;28;20052;-36
2022/10/01 00:38:28;;;;;;;10.23;6.00;;;6.50;99.90;;;;;;5029670;28;20030;-31
2022/10/01 00:40:54;;;;;;;10.77;5.35;;;6.40;99.90;;;;;;5030885;28;20026;-32
2022/10/01 00:43:26;;;;;;;8.25;5.32;;;6.20;99.90;;;;;;5034954;28;20045;-32
2022/10/01 00:45:56;;;;;;;6.93;5.63;;;6.20;99.90;;;;;;5028664;28;20064;-34
2022/10/01 00:48:23;;;;;;;8.95;5.53;;;6.30;99.90;;;;;;5031505;28;20060;-35
2022/10/01 00:50:50;;;;;;;9.80;6.28;;;6.40;99.90;;;;;;5025467;28;20379;-31
2022/10/01 00:53:18;;;;;;;7.53;5.50;;;6.40;99.90;;;;;;5022488;28;20056;-31
2022/10/01 00:55:50;;;;;;;6.45;5.40;;;6.40;99.90;;;;;;5031704;28;20094;-35
2022/10/01 00:58:17;;;;;;;8.52;5.82;;;6.50;99.90;;;;;;5033520;28;20500;-34
2022/10/01 01:00:43;;;;;;;6.72;4.95;;;6.40;99.90;;;;;;5026783;28;20113;-42
2022/10/01 01:03:10;;;;;;;7.53;5.20;;;6.50;99.90;;;;;;5021557;28;20112;-42
2022/10/01 01:05:36;;;;;;;7.13;4.70;;;6.50;99.90;;;;;;5014728;28;20113;-42
2022/10/01 01:08:02;;;;;;;7.53;4.85;;;6.50;99.90;;;;;;5015328;28;20116;-40
2022/10/01 01:10:50;;;;;;;6.55;4.47;;;6.40;99.90;;;;;;5024261;28;20064;-43
2022/10/01 01:13:34;;;;;;;7.07;4.72;;;6.00;99.90;;;;;;5017836;28;20361;-41
2022/10/01 01:16:19;;;;;;;8.48;5.13;;;6.00;99.90;;;;;;5021835;28;20071;-42
2022/10/01 01:18:53;;;;;;;8.80;4.85;;;6.10;99.90;;;;;;5015621;28;20036;-42
2022/10/01 01:21:30;;;;;;;7.18;4.72;;;6.10;99.90;;;;;;5016664;28;20041;-43
2022/10/01 01:24:31;;;;;;;6.28;4.55;;;6.00;99.90;;;;;;5021647;28;20100;-43
2022/10/01 01:27:23;;;;;;;7.03;4.45;;;6.00;99.90;;;;;;5024957;28;20084;-42
2022/10/01 01:30:04;;;;;;;8.13;5.28;;;6.00;99.90;;;;;;5020097;28;20072;-42
2022/10/01 01:32:35;;;;;;;10.75;4.85;;;6.00;99.90;;;;;;5018673;28;20384;-42
2022/10/01 01:35:05;;;;;;;7.95;4.30;;;6.00;99.90;;;;;;5022033;28;20052;-41
2022/10/01 01:37:37;;;;;;;5.88;4.55;;;6.00;99.90;;;;;;5023469;28;20037;-38
2022/10/01 01:40:09;;;;;;;7.05;4.95;;;6.00;99.90;;;;;;5016416;28;20787;-40
2022/10/01 01:42:38;;;;;;;7.43;4.45;;;6.00;99.90;;;;;;5022305;28;20759;-42
2022/10/01 01:45:08;;;;;;;7.20;5.15;;;6.00;99.90;;;;;;5024256;28;20021;-42
2022/10/01 01:47:37;;;;;;;9.38;5.22;;;6.00;99.90;;;;;;5028201;28;20384;-35
2022/10/01 01:50:03;;;;;;;7.57;4.75;;;6.00;99.90;;;;;;5020386;28;20391;-41
2022/10/01 01:52:29;;;;;;;6.68;4.53;;;6.00;99.90;;;;;;5027316;28;20406;-37
2022/10/01 01:54:56;;;;;;;6.40;4.55;;;6.10;99.90;;;;;;5022211;28;20038;-43
2022/10/01 01:57:21;;;;;;;7.15;4.80;;;5.90;99.90;;;;;;5028123;28;20044;-40
2022/10/01 01:59:47;;;;;;;5.30;3.92;;;5.70;99.90;;;;;;5022719;28;20029;-42
2022/10/01 02:02:19;;;;;;;4.75;3.65;;;5.60;99.90;;;;;;5020020;28;20033;-38
2022/10/01 02:05:08;;;;;;;6.20;4.00;;;5.60;99.90;;;;;;5030072;28;20034;-42
2022/10/01 02:08:06;;;;;;;5.22;4.03;;;5.60;99.90;;;;;;5022170;28;20068;-42
2022/10/01 02:10:50;;;;;;;5.47;3.72;;;5.50;99.90;;;;;;5015145;28;20037;-43
2022/10/01 02:13:37;;;;;;;7.10;4.53;;;5.40;99.90;;;;;;5029651;28;20036;-43
2022/10/01 02:16:20;;;;;;;6.28;4.57;;;5.40;99.90;;;;;;5021415;28;20061;-42
2022/10/01 02:18:58;;;;;;;4.65;3.63;;;5.40;99.90;;;;;;5023963;28;20630;-41
2022/10/01 02:21:32;;;;;;;7.15;4.68;;;5.40;99.90;;;;;;5022289;28;20052;-42
2022/10/01 02:24:12;;;;;;;6.22;4.72;;;5.50;99.90;;;;;;5020793;28;20120;-40
2022/10/01 02:26:40;;;;;;;6.80;5.00;;;5.50;99.90;;;;;;5019628;28;20061;-42
2022/10/01 02:29:11;;;;;;;6.45;4.68;;;5.60;99.90;;;;;;5024573;28;20028;-40
2022/10/01 02:31:38;;;;;;;5.80;4.32;;;5.60;99.90;;;;;;5024567;28;20041;-42
2022/10/01 02:34:06;;;;;;;6.03;4.55;;;5.50;99.90;;;;;;5023190;28;20034;-42
2022/10/01 02:36:35;;;;;;;5.57;4.43;;;5.60;99.90;;;;;;5024752;28;20033;-41
2022/10/01 02:39:03;;;;;;;8.10;4.30;;;5.60;99.90;;;;;;5021458;28;20518;-41
2022/10/01 02:41:35;;;;;;;5.43;4.55;;;5.60;99.90;;;;;;5024882;28;20029;-43
2022/10/01 02:44:09;;;;;;;7.32;4.90;;;5.50;99.90;;;;;;5021408;28;20037;-42
2022/10/01 02:46:47;;;;;;;6.55;4.47;;;5.40;99.90;;;;;;5014949;28;20453;-42
2022/10/01 02:49:13;;;;;;;;;;;5.40;99.90;;;;;;5023649;28;20029;-42
2022/10/01 02:52:06;;;;;;;4.78;4.28;;;5.30;99.90;;;;;;5022079;28;19971;-42
2022/10/01 02:54:47;;;;;;;6.47;4.28;;;5.20;99.90;;;;;;5024851;28;20471;-40
2022/10/01 02:57:26;;;;;;;7.47;4.97;;;5.30;99.90;;;;;;5022506;28;20021;-38
2022/10/01 02:59:53;;;;;;;;;;;5.30;99.90;;;;;;5020664;28;20033;-42
2022/10/01 03:02:21;;;;;;;7.45;4.85;;;5.10;99.90;;;;;;5023825;28;19923;-43
2022/10/01 03:04:47;;;;;;;5.63;3.83;;;5.10;99.90;;;;;;5021511;28;20044;-42
2022/10/01 03:07:14;;;;;;;7.40;5.35;;;5.00;99.90;;;;;;5022236;28;20429;-42
2022/10/01 03:09:40;;;;;;;8.63;4.68;;;5.10;99.90;;;;;;5020000;28;20038;-41
2022/10/01 03:12:06;;;;;;;6.85;4.43;;;5.00;99.90;;;;;;5023326;28;20102;-42
2022/10/01 03:14:32;;;;;;;6.63;4.50;;;5.10;99.90;;;;;;5020261;28;20108;-38
2022/10/01 03:16:57;;;;;;;7.03;5.05;;;5.10;99.90;;;;;;5018822;28;20057;-42
2022/10/01 03:19:23;;;;;;;8.57;5.28;;;5.10;99.90;;;;;;5017962;28;20106;-42
2022/10/01 03:21:48;;;;;;;29.52;5.28;;;5.00;99.90;;;;;;5015223;28;20128;-41
2022/10/01 03:24:14;;;;;;;5.65;4.45;;;4.90;99.90;;;;;;5026090;28;20022;-41
2022/10/01 03:26:40;;;;;;;6.65;4.70;;;4.90;99.90;;;;;;5025181;28;20507;-42
2022/10/01 03:29:05;;;;;;;5.90;4.28;;;4.90;99.90;;;;;;5021002;28;20518;-39
2022/10/01 03:31:31;;;;;;;11.00;4.45;;;4.90;99.90;;;;;;5014939;28;20047;-42
2022/10/01 03:33:59;;;;;;;4.88;4.13;;;4.80;99.90;;;;;;5026846;28;20030;-42
2022/10/01 03:36:29;;;;;;;5.97;4.30;;;4.80;99.90;;;;;;5024571;28;20037;-43
2022/10/01 03:38:55;;;;;;;6.93;4.47;;;4.80;99.90;;;;;;5020370;28;20086;-42
2022/10/01 03:41:21;;;;;;;17.42;4.15;;;4.70;99.90;;;;;;5014557;28;20052;-40
2022/10/01 03:43:47;;;;;;;3.88;3.47;;;4.70;99.90;;;;;;5024739;28;20487;-42
2022/10/01 03:46:12;;;;;;;6.70;4.15;;;4.60;99.90;;;;;;5020768;28;20029;-42
2022/10/01 03:48:38;;;;;;;8.80;4.15;;;4.50;99.90;;;;;;5018645;28;20937;-42
2022/10/01 03:51:04;;;;;;;14.57;4.65;;;4.50;99.90;;;;;;5014372;28;20499;-42
2022/10/01 03:53:30;;;;;;;7.55;3.58;;;4.60;99.90;;;;;;5027364;28;20024;-40
2022/10/01 03:56:00;;;;;;;9.02;5.00;;;4.60;99.90;;;;;;5018414;28;20033;-42
2022/10/01 03:58:25;;;;;;;4.90;3.88;;;4.60;99.90;;;;;;5022210;28;20049;-43
2022/10/01 04:00:54;;;;;;;7.55;5.07;;;4.60;99.90;;;;;;5023151;28;20574;-42
2022/10/01 04:03:20;;;;;;;7.05;4.95;;;4.70;99.90;;;;;;5025787;28;20029;-39
2022/10/01 04:05:46;;;;;;;4.88;4.03;;;4.70;99.90;;;;;;5017409;28;20052;-36
2022/10/01 04:08:12;;;;;;;7.97;5.32;;;4.70;99.90;;;;;;5023081;28;20486;-41
2022/10/01 04:10:39;;;;;;;17.08;5.68;;;4.70;99.90;;;;;;5011794;28;20112;-42
2022/10/01 04:13:05;;;;;;;6.65;4.38;;;4.70;99.90;;;;;;5020692;28;20091;-42
2022/10/01 04:15:34;;;;;;;6.60;4.53;;;4.70;99.90;;;;;;5018325;28;20095;-41
2022/10/01 04:18:04;;;;;;;8.43;5.32;;;4.80;99.90;;;;;;5024941;28;20033;-41
2022/10/01 04:20:32;;;;;;;8.52;5.65;;;4.90;99.90;;;;;;5022863;28;20130;-42
2022/10/01 04:22:58;;;;;;;11.80;6.50;;;5.10;99.90;;;;;;5015161;28;20049;-42
2022/10/01 04:25:24;;;;;;;12.02;6.60;;;5.20;99.90;;;;;;5015166;28;20080;-37
2022/10/01 04:27:56;;;;;;;14.00;7.40;;;5.30;99.90;;;;;;5017436;28;20060;-42
2022/10/01 04:30:23;;;;;;;13.45;7.72;;;5.50;99.90;;;;;;5016534;28;20712;-41
2022/10/01 04:32:49;;;;;;;11.52;6.82;;;5.60;99.90;;;;;;5020710;28;20112;-42
2022/10/01 04:35:15;;;;;;;10.57;6.60;;;5.60;99.90;;;;;;5023317;28;20164;-43
2022/10/01 04:37:40;;;;;;;11.63;7.03;;;5.70;99.90;;;;;;5020895;28;20049;-40
2022/10/01 04:40:06;;;;;;;10.07;6.07;;;5.70;99.90;;;;;;5019539;28;20037;-41
2022/10/01 04:42:32;;;;;;;9.45;5.85;;;5.80;99.90;;;;;;5017778;28;20040;-42
2022/10/01 04:44:57;;;;;;;8.35;5.38;;;5.80;99.90;;;;;;5017743;28;20069;-42
2022/10/01 04:47:23;;;;;;;7.35;5.25;;;5.70;99.90;;;;;;5016690;28;20030;-42
2022/10/01 04:49:48;;;;;;;8.00;4.97;;;5.60;99.90;;;;;;5021252;28;20037;-40
2022/10/01 04:52:14;;;;;;;6.90;5.07;;;5.60;99.90;;;;;;5017605;28;20042;-40
2022/10/01 04:54:40;;;;;;;7.88;4.88;;;5.60;99.90;;;;;;5022650;28;20056;-44
2022/10/01 04:57:06;;;;;;;6.75;5.07;;;5.60;99.90;;;;;;5016180;28;20029;-42
2022/10/01 04:59:32;;;;;;;7.03;4.88;;;5.60;99.90;;;;;;5014772;28;20037;-42
2022/10/01 05:01:57;;;;;;;8.43;4.97;;;5.70;99.90;;;;;;5015878;28;20029;-42
2022/10/01 05:04:23;;;;;;;6.70;4.57;;;5.70;99.90;;;;;;5021986;28;20084;-36
2022/10/01 05:06:48;;;;;;;10.38;5.00;;;5.70;99.90;;;;;;5022373;28;20025;-43
2022/10/01 05:09:14;;;;;;;6.35;3.92;;;5.70;99.90;;;;;;5031047;28;20091;-41
2022/10/01 05:11:39;;;;;;;9.48;4.78;;;5.80;99.90;;;;;;5019698;28;20040;-36
2022/10/01 05:14:05;;;;;;;5.80;4.65;;;5.80;99.90;;;;;;5024670;28;20037;-41
2022/10/01 05:16:31;;;;;;;6.95;4.45;;;5.80;99.90;;;;;;5024970;28;20037;-42
2022/10/01 05:18:57;;;;;;;8.45;5.55;;;5.80;99.90;;;;;;5020138;28;20466;-41
2022/10/01 05:21:23;;;;;;;9.02;5.68;;;5.90;99.90;;;;;;5021459;28;20037;-42
2022/10/01 05:23:48;;;;;;;8.27;5.80;;;5.90;99.90;;;;;;5024889;28;20037;-40
2022/10/01 05:26:14;;;;;;;8.30;5.97;;;6.00;99.90;;;;;;5021111;28;20026;-42
2022/10/01 05:28:43;;;;;;;8.52;5.90;;;6.00;99.90;;;;;;5020732;28;22178;-42
2022/10/01 05:31:10;;;;;;;8.18;5.30;;;6.00;99.90;;;;;;5016463;28;20431;-42
2022/10/01 05:33:37;;;;;;;10.48;5.80;;;6.10;99.90;;;;;;5024707;28;20041;-36
2022/10/01 05:36:05;;;;;;;8.40;5.38;;;6.10;99.90;;;;;;5024439;28;20606;-40
2022/10/01 05:38:35;;;;;;;;;;;6.10;99.90;;;;;;5025092;28;20160;-41
2022/10/01 05:41:00;;;;;;;9.20;6.30;;;6.10;99.90;;;;;;5023283;28;19933;-39
2022/10/01 05:43:26;;;;;;;7.82;5.65;;;6.20;99.90;;;;;;5021625;28;20037;-42
2022/10/01 05:45:51;;;;;;;10.60;5.82;;;6.20;99.90;;;;;;5024248;28;20056;-42
2022/10/01 05:48:17;;;;;;;11.43;6.25;;;6.20;99.90;;;;;;5022348;28;20038;-40
2022/10/01 05:50:43;;;;;;;8.70;5.10;;;6.20;99.90;;;;;;5028736;28;20037;-41
2022/10/01 05:53:10;;;;;;;6.03;4.55;;;6.20;99.90;;;;;;5019905;28;20163;-42
2022/10/01 05:55:36;;;;;;;7.72;4.90;;;6.20;99.90;;;;;;5020440;28;20099;-40
2022/10/01 05:58:03;;;;;;;8.40;5.22;;;6.20;99.90;;;;;;5025677;28;20371;-40
2022/10/01 06:00:30;;;;;;;10.30;5.88;;;6.20;99.90;;;;;;5020415;28;20025;-41
2022/10/01 06:02:57;;;;;;;6.80;5.35;;;6.20;99.90;;;;;;5023317;28;20075;-42
2022/10/01 06:05:24;;;;;;;13.75;7.05;;;6.30;99.90;;;;;;5026119;28;20029;-35
2022/10/01 06:07:50;;;;;;;12.32;6.90;;;6.30;99.90;;;;;;5016428;28;20038;-42
2022/10/01 06:10:17;;;;;;;13.63;8.40;;;6.40;99.90;;;;;;5021056;28;20478;-42
2022/10/01 06:12:43;;;;;;;14.15;8.63;;;6.60;99.90;;;;;;5014190;28;20504;-41
2022/10/01 06:15:09;;;;;;;15.48;8.35;;;6.70;99.90;;;;;;5010878;28;20040;-39
2022/10/01 06:17:35;;;;;;;17.92;9.52;;;6.90;99.90;;;;;;5013282;28;20435;-41
2022/10/01 06:20:00;;;;;;;20.25;10.20;;;6.90;99.90;;;;;;5020520;28;20122;-41
2022/10/01 06:22:26;;;;;;;16.08;8.77;;;7.10;99.90;;;;;;5023155;28;20022;-42
2022/10/01 06:24:52;;;;;;;15.32;8.23;;;7.20;99.90;;;;;;5014194;28;20022;-41
2022/10/01 06:27:17;;;;;;;16.33;8.73;;;7.30;99.90;;;;;;5019807;28;20235;-38
2022/10/01 06:29:43;;;;;;;13.25;8.75;;;7.40;99.90;;;;;;5013560;28;20033;-36
2022/10/01 06:32:12;;;;;;;12.32;8.05;;;7.40;99.90;;;;;;5014145;28;20038;-40
2022/10/01 06:34:38;;;;;;;12.18;7.68;;;7.50;99.90;;;;;;5023591;28;20115;-43
2022/10/01 06:37:04;;;;;;;15.52;8.93;;;7.60;99.90;;;;;;5024753;28;20049;-42
2022/10/01 06:39:30;;;;;;;15.10;8.35;;;7.60;99.90;;;;;;5027150;28;20021;-42
2022/10/01 06:41:55;;;;;;;14.20;7.72;;;7.60;99.90;;;;;;5020175;28;20035;-41
2022/10/01 06:44:21;;;;;;;11.75;7.35;;;7.70;99.90;;;;;;5027860;28;20033;-42
2022/10/01 06:46:47;;;;;;;12.23;7.63;;;7.60;99.90;;;;;;5026910;28;20470;-42
2022/10/01 06:49:12;;;;;;;11.63;6.95;;;7.70;99.90;;;;;;5026441;28;20092;-41
2022/10/01 06:54:22;;;;;;;10.95;6.38;;;7.90;99.90;;;;;;5025819;28;20497;-41
2022/10/01 06:56:48;;;;;;;13.07;7.82;;;8.00;99.90;;;;;;5024335;28;20029;-39
2022/10/01 06:59:13;;;;;;;10.88;6.20;;;8.10;99.90;;;;;;5026056;28;20522;-41
2022/10/01 07:01:39;;;;;;;10.20;6.07;;;8.20;99.90;;;;;;5017717;28;20026;-41
2022/10/01 07:04:04;;;;;;;11.95;6.88;;;8.30;99.90;;;;;;5016666;28;20430;-40
2022/10/01 07:06:31;;;;;;;12.20;7.10;;;8.30;99.90;;;;;;5013581;28;20041;-36
2022/10/01 07:08:57;;;;;;;10.85;6.53;;;8.40;99.90;;;;;;5019358;28;20068;-40
2022/10/01 07:11:23;;;;;;;11.48;6.88;;;8.50;99.90;;;;;;5026053;28;20037;-42
2022/10/01 07:13:49;;;;;;;12.88;7.72;;;8.50;99.90;;;;;;5014612;28;20029;-42
2022/10/01 07:16:15;;;;;;;10.13;6.68;;;8.60;99.90;;;;;;5018962;28;20468;-43
2022/10/01 07:18:40;;;;;;;11.15;7.00;;;8.70;99.90;;;;;;5024835;28;20093;-40
2022/10/01 07:21:06;;;;;;;11.15;6.95;;;8.70;99.90;;;;;;5019976;28;20046;-42
2022/10/01 07:23:31;;;;;;;11.85;6.65;;;8.70;99.90;;;;;;5028415;28;20504;-39
2022/10/01 07:25:57;;;;;;;9.95;6.05;;;8.70;99.90;;;;;;5023997;28;20108;-41
2022/10/01 07:28:24;;;;;;;12.27;6.68;;;8.80;99.90;;;;;;5027341;28;20034;-41
2022/10/01 07:31:03;;;;;;;11.93;6.30;;;8.90;99.90;;;;;;5023174;28;20034;-41
2022/10/01 07:33:29;;;;;;;10.48;6.68;;;9.00;99.90;;;;;;5021845;28;20041;-41
2022/10/01 07:35:58;;;;;;;8.52;5.55;;;9.00;99.90;;;;;;5022866;28;20029;-42
2022/10/01 07:38:23;;;;;;;8.32;5.95;;;9.00;99.90;;;;;;5021859;28;20172;-42
2022/10/01 07:40:50;;;;;;;5.43;3.08;;;9.10;99.90;;;;;;5022483;28;20112;-42
2022/10/01 07:43:16;;;;;;;6.90;4.78;;;9.20;99.90;;;;;;5020038;28;20025;-41
2022/10/01 07:45:43;;;;;;;6.78;4.13;;;9.30;99.90;;;;;;5015043;28;20041;-40
2022/10/01 07:48:09;;;;;;;8.70;5.22;;;9.40;99.90;;;;;;5021213;28;20030;-42
2022/10/01 07:50:35;;;;;;;7.40;5.32;;;9.40;99.90;;;;;;5020305;28;20053;-38
2022/10/01 07:53:01;;;;;;;3.42;3.13;;;9.40;99.90;;;;;;5020062;28;20033;-36
2022/10/01 07:55:29;;;;;;;5.55;4.38;;;9.50;99.90;;;;;;5021008;28;20041;-41
2022/10/01 07:57:56;;;;;;;5.40;3.17;;;9.50;99.90;;;;;;5026999;28;20048;-41
2022/10/01 08:00:25;;;;;;;5.70;4.28;;;9.50;99.90;;;;;;5021693;28;20033;-41
2022/10/01 08:02:54;;;;;;;6.05;4.28;;;9.60;99.90;;;;;;5024607;28;20068;-36
2022/10/01 08:05:23;;;;;;;7.10;3.75;;;9.60;99.90;;;;;;5011301;28;20276;-40
2022/10/01 08:07:49;;;;;;;5.18;3.30;;;9.70;99.90;;;;;;5019684;28;20033;-41
2022/10/01 08:10:16;;;;;;;5.15;3.65;;;9.70;99.90;;;;;;5021465;28;20042;-43
2022/10/01 08:12:42;;;;;;;3.95;2.92;;;9.80;99.90;;;;;;5022486;28;20084;-41
2022/10/01 08:15:14;;;;;;;3.25;2.80;;;9.80;99.90;;;;;;5019562;28;20029;-39
2022/10/01 08:17:40;;;;;;;4.40;3.75;;;9.80;99.90;;;;;;5017936;28;20060;-42
2022/10/01 08:20:08;;;;;;;5.18;3.72;;;9.80;99.90;;;;;;5019589;28;20212;-41
2022/10/01 08:22:34;;;;;;;;;;;9.90;99.90;;;;;;5025756;28;20116;-42
2022/10/01 08:25:00;;;;;;;6.35;3.83;;;9.90;99.90;;;;;;5019188;28;20020;-41
2022/10/01 08:27:26;;;;;;;3.55;3.03;;;10.00;99.90;;;;;;5018099;28;20092;-43
2022/10/01 08:29:52;;;;;;;5.13;3.53;;;10.00;99.90;;;;;;5018904;28;20041;-43
2022/10/01 08:32:18;;;;;;;4.32;2.50;;;10.10;99.90;;;;;;5021104;28;20416;-43
2022/10/01 08:34:43;;;;;;;3.90;2.70;;;10.10;99.90;;;;;;5010482;28;20044;-41
2022/10/01 08:37:09;;;;;;;3.95;3.17;;;10.20;99.90;;;;;;5017327;28;20052;-35
2022/10/01 08:39:36;;;;;;;4.05;3.20;;;10.30;99.90;;;;;;5012890;28;20108;-41
2022/10/01 08:42:26;;;;;;;4.43;3.28;;;10.30;99.90;;;;;;5010749;28;20034;-40
2022/10/01 08:44:52;;;;;;;3.75;2.85;;;10.30;99.90;;;;;;5002161;28;20503;-41
2022/10/01 08:47:38;;;;;;;3.88;2.92;;;10.40;99.90;;;;;;5001292;28;20029;-42
2022/10/01 08:50:26;;;;;;;3.80;2.35;;;10.40;99.90;;;;;;5011259;28;20092;-41
2022/10/01 08:52:58;;;;;;;4.25;2.92;;;10.40;99.90;;;;;;5020188;28;20414;-42
2022/10/01 08:55:27;;;;;;;6.72;3.53;;;10.50;99.90;;;;;;5017241;28;20022;-38
2022/10/01 08:57:57;;;;;;;3.55;2.75;;;10.50;99.90;;;;;;5011004;28;20079;-40
2022/10/01 09:00:23;;;;;;;2.80;2.47;;;10.50;99.90;;;;;;5008103;28;20030;-38
2022/10/01 09:02:50;;;;;;;4.88;3.35;;;10.50;99.90;;;;;;5008344;28;20041;-41
2022/10/01 09:05:40;;;;;;;2.67;2.45;;;10.50;99.90;;;;;;5011079;28;20041;-42
2022/10/01 09:08:42;;;;;;;3.88;2.97;;;10.60;99.90;;;;;;5013780;28;20061;-41
2022/10/01 09:11:20;;;;;;;4.72;3.40;;;10.60;99.90;;;;;;5021385;28;20471;-40
2022/10/01 09:14:08;;;;;;;;;;;10.50;99.90;;;;;;5016727;28;20354;-38
2022/10/01 09:16:48;;;;;;;3.85;3.22;;;10.60;99.90;;;;;;5005056;28;19919;-35
2022/10/01 09:19:31;;;;;;;5.22;3.40;;;10.60;99.90;;;;;;5007868;28;20068;-39
2022/10/01 09:21:58;;;;;;;5.03;3.85;;;10.60;99.90;;;;;;5007210;28;20454;-39
2022/10/01 09:24:37;;;;;;;4.13;3.10;;;10.60;99.90;;;;;;5012137;28;20032;-42
2022/10/01 09:27:09;;;;;;;;;;;10.50;99.90;;;;;;5010615;28;20139;-40
2022/10/01 09:29:48;;;;;;;4.40;3.33;;;10.50;99.90;;;;;;5006257;28;19960;-41
2022/10/01 09:32:17;;;;;;;4.45;3.15;;;10.50;99.90;;;;;;5003500;28;20120;-41
2022/10/01 09:34:44;;;;;;;4.18;2.90;;;10.50;99.90;;;;;;5013842;28;20766;-40
2022/10/01 09:37:20;;;;;;;3.53;2.42;;;10.50;99.90;;;;;;5009460;28;20043;-40
2022/10/01 09:39:51;;;;;;;4.90;3.60;;;10.40;99.90;;;;;;5021915;28;20035;-43
2022/10/01 09:42:17;;;;;;;3.45;2.90;;;10.40;99.90;;;;;;5026667;28;20036;-42
2022/10/01 09:44:43;;;;;;;3.35;2.72;;;10.30;99.90;;;;;;5015050;28;20421;-42
2022/10/01 09:47:27;;;;;;;2.58;2.22;;;10.30;99.90;;;;;;5014423;28;20497;-41
2022/10/01 09:49:52;;;;;;;3.03;2.30;;;10.30;99.90;;;;;;5013442;28;20649;-43
2022/10/01 09:52:34;;;;;;;2.55;2.30;;;10.20;99.90;;;;;;5023578;28;20458;-43
2022/10/01 09:55:20;;;;;;;4.20;2.65;;;10.10;99.90;;;;;;5020527;28;20025;-36
2022/10/01 09:57:58;;;;;;;3.53;2.42;;;10.20;99.90;;;;;;5021041;28;20029;-43
2022/10/01 10:00:25;;;;;;;3.35;2.58;;;10.10;99.90;;;;;;5003407;28;20048;-38
2022/10/01 10:02:55;;;;;;;4.40;2.70;;;10.10;99.90;;;;;;5000481;28;20033;-36
2022/10/01 10:05:25;;;;;;;3.15;2.72;;;10.10;99.90;;;;;;5006960;28;20038;-39
2022/10/01 10:07:57;;;;;;;3.72;2.42;;;10.10;99.90;;;;;;5011518;28;20045;-38
2022/10/01 10:10:34;;;;;;;3.97;2.67;;;10.10;99.90;;;;;;5014720;28;20052;-39
2022/10/01 10:13:12;;;;;;;2.67;1.90;;;10.10;99.90;;;;;;5015964;28;20075;-41
2022/10/01 10:15:43;;;;;;;5.50;2.90;;;10.10;99.90;;;;;;5022253;28;21481;-36
2022/10/01 10:18:16;;;;;;;3.78;2.90;;;10.20;99.90;;;;;;5033498;28;20167;-41
2022/10/01 10:20:51;;;;;;;2.50;2.30;;;10.10;99.90;;;;;;5034670;28;20041;-41
2022/10/01 10:23:19;;;;;;;3.38;2.85;;;10.20;99.90;;;;;;5026810;28;20075;-41
2022/10/01 10:26:00;;;;;;;3.72;2.78;;;10.10;99.90;;;;;;5007484;28;20102;-37
2022/10/01 10:28:26;;;;;;;3.00;2.42;;;10.20;99.90;;;;;;5013434;28;20056;-42
2022/10/01 10:30:54;;;;;;;3.80;2.78;;;10.20;99.90;;;;;;5014562;28;20048;-38
2022/10/01 10:33:22;;;;;;;4.72;2.42;;;10.20;99.90;;;;;;5010161;28;20095;-39
2022/10/01 10:36:02;;;;;;;3.15;2.67;;;10.20;99.90;;;;;;5018895;28;20092;-42
2022/10/01 10:38:31;;;;;;;3.83;2.50;;;10.20;99.90;;;;;;5015474;28;20038;-41
2022/10/01 10:40:57;;;;;;;2.50;2.30;;;10.20;99.90;;;;;;5026907;28;20367;-40
2022/10/01 10:43:27;;;;;;;2.40;2.20;;;10.20;99.90;;;;;;5025165;28;20018;-42
2022/10/01 10:45:55;;;;;;;2.67;2.33;;;10.20;99.90;;;;;;5019067;28;20030;-42
2022/10/01 10:48:25;;;;;;;2.95;2.58;;;10.20;99.90;;;;;;5017508;28;20033;-41
2022/10/01 10:50:58;;;;;;;3.88;3.05;;;10.20;99.90;;;;;;5020085;28;20514;-42
2022/10/01 10:53:26;;;;;;;3.20;2.75;;;10.10;99.90;;;;;;5017531;28;21153;-40
2022/10/01 10:56:04;;;;;;;5.27;2.40;;;10.10;99.90;;;;;;5018479;28;20041;-42
2022/10/01 10:58:32;;;;;;;3.60;2.70;;;10.10;99.90;;;;;;5017535;28;20109;-42
2022/10/01 11:01:04;;;;;;;3.10;1.85;;;10.10;99.90;;;;;;5016565;28;20033;-40
2022/10/01 11:03:31;;;;;;;4.57;3.20;;;10.10;99.90;;;;;;5013130;28;20445;-39
2022/10/01 11:06:07;;;;;;;3.25;2.50;;;10.10;99.90;;;;;;5014793;28;20060;-38
2022/10/01 11:08:34;;;;;;;2.30;2.10;;;10.10;99.90;;;;;;5014589;28;20072;-37
2022/10/01 11:11:32;;;;;;;1.58;1.48;;;10.00;99.90;;;;;;5015502;28;20576;-41
2022/10/01 11:14:48;;;;;;;1.70;1.60;;;10.10;99.90;;;;;;5012515;28;20124;-39
2022/10/01 11:17:29;;;;;;;2.13;1.88;;;10.10;99.90;;;;;;4952993;28;20030;-40
2022/10/01 11:20:29;;;;;;;2.30;2.20;;;10.10;99.90;;;;;;5025605;28;20568;-42
2022/10/01 11:23:01;;;;;;;2.05;1.85;;;10.10;99.90;;;;;;5011018;28;20429;-35
2022/10/01 11:25:35;;;;;;;2.25;2.05;;;10.00;99.90;;;;;;5018456;28;20027;-40
2022/10/01 11:28:13;;;;;;;2.60;2.00;;;10.00;99.90;;;;;;5021326;28;20400;-41
2022/10/01 11:30:39;;;;;;;2.42;2.03;;;10.00;99.90;;;;;;5019336;28;20041;-42
2022/10/01 11:33:13;;;;;;;3.75;2.47;;;10.10;99.90;;;;;;5028513;28;20041;-43
2022/10/01 11:36:20;;;;;;;2.30;2.10;;;10.10;99.90;;;;;;5014931;28;20533;-44
2022/10/01 11:38:59;;;;;;;2.25;1.95;;;10.10;99.90;;;;;;4989554;28;20332;-40
2022/10/01 11:41:33;;;;;;;2.13;1.92;;;10.10;99.90;;;;;;5016866;28;20475;-38
2022/10/01 11:44:11;;;;;;;3.28;2.00;;;10.10;99.90;;;;;;5015193;28;20117;-43
2022/10/01 11:47:07;;;;;;;1.90;1.80;;;10.10;99.90;;;;;;5016871;28;20418;-40
2022/10/01 11:49:42;;;;;;;2.03;1.70;;;10.10;99.90;;;;;;5017410;28;20064;-42
2022/10/01 11:52:39;;;;;;;2.85;2.33;;;10.10;99.90;;;;;;5023480;28;20026;-42
2022/10/01 11:59:11;;;;;;;3.88;2.45;;;10.10;99.90;;;;;;5012388;28;20585;-35
2022/10/01 12:01:43;;;;;;;2.58;2.35;;;10.10;99.90;;;;;;5014626;28;20041;-42
2022/10/01 12:04:31;;;;;;;2.37;2.17;;;10.10;99.90;;;;;;5016777;28;20043;-41
2022/10/01 12:06:57;;;;;;;6.32;2.67;;;10.20;99.90;;;;;;5012616;28;20379;-42
2022/10/01 12:09:30;;;;;;;2.72;2.15;;;10.20;99.90;;;;;;5016532;28;20029;-37
2022/10/01 12:12:10;;;;;;;3.47;2.42;;;10.20;99.90;;;;;;5024301;28;20041;-43
2022/10/01 12:14:55;;;;;;;3.00;2.63;;;10.20;99.90;;;;;;5017313;28;20100;-41
2022/10/01 12:17:44;;;;;;;3.33;2.60;;;10.20;99.90;;;;;;5017594;28;20479;-43
2022/10/01 12:20:26;;;;;;;4.68;2.28;;;10.30;99.90;;;;;;5016030;28;20595;-33
2022/10/01 12:22:53;;;;;;;2.70;2.20;;;10.30;99.90;;;;;;5014280;28;20056;-43
2022/10/01 12:25:24;;;;;;;3.33;2.38;;;10.30;99.90;;;;;;5016700;28;20025;-42
2022/10/01 12:28:34;;;;;;;9.65;3.90;;;10.30;99.90;;;;;;5016171;28;20475;-39
2022/10/01 12:31:11;;;;;;;2.47;2.22;;;10.40;99.90;;;;;;4982443;28;20093;-41
2022/10/01 12:33:52;;;;;;;4.15;2.55;;;10.40;99.90;;;;;;5015306;28;20503;-41
2022/10/01 12:36:39;;;;;;;3.70;1.70;;;10.40;99.90;;;;;;5021517;28;20036;-42
2022/10/01 12:39:23;;;;;;;4.13;2.20;;;10.50;99.90;;;;;;5020321;28;20029;-43
2022/10/01 12:42:22;;;;;;;2.17;1.98;;;10.50;99.90;;;;;;5019948;28;20033;-42
2022/10/01 12:45:12;;;;;;;2.15;1.40;;;10.50;99.90;;;;;;5013601;28;20028;-39
2022/10/01 12:47:49;;;;;;;1.52;1.42;;;10.50;99.90;;;;;;5010151;28;20088;-39
2022/10/01 12:50:26;;;;;;;4.45;2.05;;;10.50;99.90;;;;;;5020284;28;20026;-43
2022/10/01 12:53:24;;;;;;;3.83;2.00;;;10.50;99.90;;;;;;5021055;28;20034;-42
2022/10/01 12:56:10;;;;;;;4.72;1.33;;;10.50;99.90;;;;;;5020723;28;20052;-41
2022/10/01 12:58:45;;;;;;;2.55;1.90;;;10.50;99.90;;;;;;5017946;28;20036;-39
2022/10/01 13:01:23;;;;;;;2.10;1.92;;;10.50;99.90;;;;;;5020430;28;20109;-42
2022/10/01 13:03:58;;;;;;;;;;;10.50;99.90;;;;;;5017929;28;20052;-39
2022/10/01 13:06:28;;;;;;;3.17;1.80;;;10.60;99.90;;;;;;5016519;28;19913;-41
2022/10/01 13:09:19;;;;;;;2.10;1.80;;;10.60;99.90;;;;;;5018858;28;20542;-39
2022/10/01 13:11:57;;;;;;;1.70;1.60;;;10.60;99.90;;;;;;5017668;28;20474;-40
2022/10/01 13:14:24;;;;;;;1.67;1.58;;;10.60;99.90;;;;;;5023332;28;20558;-41
2022/10/01 13:17:20;;;;;;;24.02;9.13;;;10.70;99.90;;;;;;5021381;28;20042;-40
2022/10/01 13:19:54;;;;;;;4.85;2.63;;;10.70;99.90;;;;;;5016831;28;20446;-42
2022/10/01 13:22:50;;;;;;;6.38;3.78;;;10.70;99.90;;;;;;5024107;28;20360;-41